createdAt,value
2018-10-01T00:04:29.375Z,99784.62
2018-10-01T00:09:32.704Z,99768.28
2018-10-01T00:14:36.212Z,99775.40
2018-10-01T00:19:44.840Z,99773.30
2018-10-01T00:24:48.193Z,99772.66
2018-10-01T00:29:52.005Z,99776.31
2018-10-01T00:34:56.066Z,99768.92
2018-10-01T00:39:59.462Z,99773.80
2018-10-01T00:45:02.941Z,99763.03
2018-10-01T00:50:06.364Z,99763.63
2018-10-01T00:55:09.745Z,99759.84
2018-10-01T01:00:13.204Z,99759.05
2018-10-01T01:05:16.512Z,99758.81
2018-10-01T01:10:19.873Z,99768.08
2018-10-01T01:15:23.172Z,99764.12
2018-10-01T01:20:26.504Z,99766.05
2018-10-01T01:25:29.829Z,99766.55
2018-10-01T01:30:33.143Z,99766.31
2018-10-01T01:35:36.490Z,99755.55
2018-10-01T01:40:39.785Z,99753.81
2018-10-01T01:45:43.094Z,99761.22
2018-10-01T01:50:46.396Z,99756.95
2018-10-01T01:55:49.725Z,99759.91
2018-10-01T02:00:53.045Z,99756.05
2018-10-01T02:05:56.388Z,99750.31
2018-10-01T02:10:59.706Z,99744.46
2018-10-01T02:16:03.097Z,99745.44
2018-10-01T02:21:06.457Z,99742.20
2018-10-01T02:26:09.768Z,99738.00
2018-10-01T02:31:13.074Z,99727.67
2018-10-01T02:36:16.407Z,99724.02
2018-10-01T02:41:19.760Z,99730.09
2018-10-01T02:46:23.099Z,99722.77
2018-10-01T02:51:26.418Z,99715.42
2018-10-01T02:56:29.732Z,99715.98
2018-10-01T03:01:33.084Z,99704.02
2018-10-01T03:06:36.405Z,99702.86
2018-10-01T03:11:39.892Z,99706.08
2018-10-01T03:16:43.260Z,99703.41
2018-10-01T03:21:46.569Z,99705.14
2018-10-01T03:26:49.891Z,99702.91
2018-10-01T03:31:53.204Z,99698.98
2018-10-01T03:36:56.601Z,99703.99
2018-10-01T03:41:59.928Z,99704.69
2018-10-01T03:47:03.255Z,99710.38
2018-10-01T03:52:06.573Z,99712.73
2018-10-01T03:57:10.200Z,99724.69
2018-10-01T04:02:13.490Z,99720.19
2018-10-01T04:07:16.806Z,99726.81
2018-10-01T04:12:20.126Z,99731.70
2018-10-01T04:17:23.449Z,99739.49
2018-10-01T04:22:32.160Z,99727.27
2018-10-01T04:27:35.900Z,99727.23
2018-10-01T04:32:39.246Z,99744.27
2018-10-01T04:37:42.571Z,99756.87
2018-10-01T04:42:45.917Z,99754.75
2018-10-01T04:47:49.227Z,99756.91
2018-10-01T04:52:52.540Z,99757.27
2018-10-01T04:57:55.852Z,99761.07
2018-10-01T05:02:59.164Z,99759.80
2018-10-01T05:08:02.469Z,99759.13
2018-10-01T05:13:05.782Z,99756.69
2018-10-01T05:18:09.111Z,99764.14
2018-10-01T05:23:12.424Z,99772.59
2018-10-01T05:28:15.861Z,99779.18
2018-10-01T05:33:19.195Z,99784.77
2018-10-01T05:38:22.508Z,99786.59
2018-10-01T05:43:25.852Z,99782.50
2018-10-01T05:48:29.159Z,99791.97
2018-10-01T05:53:33.335Z,99800.17
2018-10-01T05:58:36.660Z,99808.28
2018-10-01T06:03:39.980Z,99806.64
2018-10-01T06:08:43.344Z,99807.13
2018-10-01T06:13:46.633Z,99810.50
2018-10-01T06:18:49.936Z,99817.62
2018-10-01T06:23:53.248Z,99813.44
2018-10-01T06:28:56.544Z,99823.38
2018-10-01T06:33:59.816Z,99812.44
2018-10-01T06:39:03.113Z,99815.80
2018-10-01T06:44:06.416Z,99825.72
2018-10-01T06:49:09.693Z,99830.27
2018-10-01T06:54:12.977Z,99838.98
2018-10-01T06:59:16.279Z,99833.95
2018-10-01T07:04:19.562Z,99835.54
2018-10-01T07:09:22.841Z,99844.63
2018-10-01T07:14:26.113Z,99841.05
2018-10-01T07:19:29.414Z,99852.02
2018-10-01T07:24:32.704Z,99862.06
2018-10-01T07:29:35.984Z,99870.22
2018-10-01T07:34:39.332Z,99877.58
2018-10-01T07:39:42.617Z,99876.58
2018-10-01T07:44:45.969Z,99870.75
2018-10-01T07:49:49.208Z,99881.75
2018-10-01T07:54:52.497Z,99889.15
2018-10-01T07:59:55.952Z,99895.20
2018-10-01T08:04:59.125Z,99901.74
2018-10-01T08:10:02.415Z,99908.55
2018-10-01T08:15:06.076Z,99909.19
2018-10-01T08:20:09.456Z,99899.91
2018-10-01T08:25:12.709Z,99909.39
2018-10-01T08:30:16.005Z,99906.15
2018-10-01T08:35:19.286Z,99914.16
2018-10-01T08:40:22.589Z,99926.47
2018-10-01T08:45:25.875Z,99927.50
2018-10-01T08:50:34.615Z,99935.88
2018-10-01T08:55:37.897Z,99932.11
2018-10-01T09:00:41.187Z,99938.06
2018-10-01T09:05:44.456Z,99933.73
2018-10-01T09:10:47.742Z,99935.70
2018-10-01T09:15:51.029Z,99931.89
2018-10-01T09:20:54.332Z,99939.69
2018-10-01T09:25:57.667Z,99934.77
2018-10-01T09:31:01.033Z,99929.53
2018-10-01T09:36:04.288Z,99924.08
2018-10-01T09:41:07.596Z,99924.58
2018-10-01T09:46:10.991Z,99922.50
2018-10-01T09:51:14.296Z,99920.21
2018-10-01T09:56:17.641Z,99918.70
2018-10-01T10:01:20.911Z,99917.59
2018-10-01T10:06:24.213Z,99926.89
2018-10-01T10:11:27.535Z,99921.91
2018-10-01T10:16:30.858Z,99931.63
2018-10-01T10:21:34.100Z,99925.91
2018-10-01T10:26:37.465Z,99929.14
2018-10-01T10:31:40.703Z,99929.05
2018-10-01T10:36:43.980Z,99932.80
2018-10-01T10:41:47.609Z,99934.16
2018-10-01T10:46:50.808Z,99940.52
2018-10-01T10:51:55.148Z,99938.87
2018-10-01T10:56:58.469Z,99936.06
2018-10-01T11:02:02.259Z,99938.44
2018-10-01T11:07:05.585Z,99955.16
2018-10-01T11:12:08.901Z,99966.74
2018-10-01T11:17:12.184Z,99967.64
2018-10-01T11:22:15.486Z,99959.75
2018-10-01T11:27:18.928Z,99965.30
2018-10-01T11:32:22.096Z,99971.34
2018-10-01T11:37:25.380Z,99970.74
2018-10-01T11:42:28.692Z,99968.16
2018-10-01T11:47:31.975Z,99974.70
2018-10-01T11:52:35.251Z,99980.73
2018-10-01T11:57:38.594Z,99979.41
2018-10-01T12:02:41.865Z,99980.52
2018-10-01T12:07:45.349Z,99983.53
2018-10-01T12:12:48.672Z,99976.39
2018-10-01T12:17:51.944Z,99973.28
2018-10-01T12:22:55.220Z,99972.94
2018-10-01T12:27:58.497Z,99968.63
2018-10-01T12:33:01.799Z,99971.11
2018-10-01T12:38:05.082Z,99964.98
2018-10-01T12:43:08.388Z,99966.11
2018-10-01T12:48:11.686Z,99975.84
2018-10-01T12:53:15.143Z,99974.09
2018-10-01T12:58:18.453Z,99975.75
2018-10-01T13:03:28.100Z,99984.34
2018-10-01T13:08:31.403Z,99991.63
2018-10-01T13:13:34.688Z,99988.14
2018-10-01T13:18:38.078Z,99993.67
2018-10-01T13:23:41.353Z,100000.11
2018-10-01T13:28:44.641Z,100001.53
2018-10-01T13:33:47.924Z,100002.14
2018-10-01T13:38:51.422Z,100003.58
2018-10-01T13:43:54.798Z,100010.25
2018-10-01T13:48:58.114Z,100013.09
2018-10-01T13:54:01.590Z,100006.55
2018-10-01T13:59:04.932Z,100005.95
2018-10-01T14:04:08.789Z,100001.62
2018-10-01T14:09:12.585Z,100003.16
2018-10-01T14:14:15.888Z,99996.48
2018-10-01T14:19:19.380Z,99996.55
2018-10-01T14:24:22.549Z,100001.44
2018-10-01T14:29:25.901Z,100002.97
2018-10-01T14:34:29.240Z,100006.66
2018-10-01T14:39:32.596Z,100003.48
2018-10-01T14:44:35.852Z,100009.41
2018-10-01T14:49:39.164Z,100012.09
2018-10-01T14:54:43.101Z,100017.55
2018-10-01T14:59:46.408Z,100010.89
2018-10-01T15:04:49.782Z,100005.34
2018-10-01T15:09:53.056Z,100007.92
2018-10-01T15:14:56.343Z,100005.07
2018-10-01T15:19:59.729Z,100020.66
2018-10-01T15:25:03.906Z,100013.52
2018-10-01T15:30:07.445Z,100014.28
2018-10-01T15:35:10.744Z,100022.55
2018-10-01T15:40:14.231Z,100027.86
2018-10-01T15:45:17.543Z,100032.95
2018-10-01T15:50:20.832Z,100035.81
2018-10-01T15:55:24.117Z,100041.52
2018-10-01T16:00:27.425Z,100042.74
2018-10-01T16:05:30.787Z,100046.75
2018-10-01T16:10:34.111Z,100046.69
2018-10-01T16:15:37.425Z,100051.27
2018-10-01T16:20:40.704Z,100057.69
2018-10-01T16:25:44.022Z,100066.28
2018-10-01T16:30:47.312Z,100066.55
2018-10-01T16:35:50.621Z,100074.02
2018-10-01T16:40:53.949Z,100083.23
2018-10-01T16:45:57.591Z,100085.81
2018-10-01T16:51:00.905Z,100101.20
2018-10-01T16:56:04.339Z,100111.88
2018-10-01T17:01:07.711Z,100135.13
2018-10-01T17:06:11.023Z,100149.28
2018-10-01T17:11:14.324Z,100149.64
2018-10-01T17:16:17.631Z,100162.77
2018-10-01T17:21:20.997Z,100169.47
2018-10-01T17:26:24.343Z,100174.83
2018-10-01T17:31:27.642Z,100183.70
2018-10-01T17:36:31.001Z,100190.51
2018-10-01T17:41:34.311Z,100197.55
2018-10-01T17:46:37.638Z,100199.58
2018-10-01T17:51:41.555Z,100201.58
2018-10-01T17:56:44.880Z,100197.41
2018-10-01T18:01:48.163Z,100204.64
2018-10-01T18:06:51.473Z,100212.97
2018-10-01T18:11:54.944Z,100214.84
2018-10-01T18:16:58.464Z,100221.17
2018-10-01T18:22:01.926Z,100227.11
2018-10-01T18:27:05.437Z,100231.41
2018-10-01T18:32:08.957Z,100242.02
2018-10-01T18:37:12.409Z,100240.95
2018-10-01T18:42:15.742Z,100247.21
2018-10-01T18:47:19.178Z,100250.49
2018-10-01T18:52:22.471Z,100260.45
2018-10-01T18:57:25.877Z,100261.58
2018-10-01T19:02:29.241Z,100269.97
2018-10-01T19:07:32.728Z,100268.40
2018-10-01T19:12:36.049Z,100271.47
2018-10-01T19:17:39.414Z,100279.22
2018-10-01T19:22:42.804Z,100290.78
2018-10-01T19:27:46.104Z,100290.70
2018-10-01T19:32:49.405Z,100302.56
2018-10-01T19:37:52.796Z,100297.53
2018-10-01T19:42:56.121Z,100305.94
2018-10-01T19:47:59.453Z,100321.14
2018-10-01T19:53:02.826Z,100323.74
2018-10-01T19:58:06.189Z,100322.75
2018-10-01T20:03:09.553Z,100332.66
2018-10-01T20:08:12.872Z,100340.91
2018-10-01T20:13:16.221Z,100342.39
2018-10-01T20:18:19.586Z,100340.45
2018-10-01T20:23:23.155Z,100346.09
2018-10-01T20:28:26.679Z,100350.69
2018-10-01T20:33:29.935Z,100350.69
2018-10-01T20:38:33.261Z,100355.15
2018-10-01T20:43:36.576Z,100360.60
2018-10-01T20:48:39.980Z,100363.62
2018-10-01T20:53:43.396Z,100362.80
2018-10-01T20:58:46.690Z,100367.48
2018-10-01T21:03:49.968Z,100370.27
2018-10-01T21:08:53.296Z,100378.28
2018-10-01T21:13:56.611Z,100381.94
2018-10-01T21:18:59.960Z,100388.78
2018-10-01T21:24:03.388Z,100400.23
2018-10-01T21:29:06.812Z,100408.67
2018-10-01T21:34:10.200Z,100407.17
2018-10-01T21:39:23.230Z,100422.73
2018-10-01T21:44:26.564Z,100425.55
2018-10-01T21:49:29.888Z,100426.88
2018-10-01T21:54:33.217Z,100430.20
2018-10-01T21:59:36.540Z,100421.79
2018-10-01T22:04:39.868Z,100429.05
2018-10-01T22:09:43.182Z,100431.20
2018-10-01T22:14:46.490Z,100436.50
2018-10-01T22:19:49.809Z,100435.52
2018-10-01T22:24:53.204Z,100440.45
2018-10-01T22:29:56.576Z,100448.38
2018-10-01T22:34:59.933Z,100450.55
2018-10-01T22:40:03.513Z,100444.91
2018-10-01T22:45:07.041Z,100450.36
2018-10-01T22:50:10.393Z,100450.36
2018-10-01T22:55:13.877Z,100453.50
2018-10-01T23:00:17.196Z,100452.02
2018-10-01T23:05:20.512Z,100458.95
2018-10-01T23:10:23.812Z,100453.31
2018-10-01T23:15:27.119Z,100457.92
2018-10-01T23:20:30.414Z,100460.37
2018-10-01T23:25:33.712Z,100456.72
2018-10-01T23:30:37.040Z,100457.04
2018-10-01T23:35:40.383Z,100467.91
2018-10-01T23:40:43.919Z,100459.00
2018-10-01T23:45:47.235Z,100463.96
2018-10-01T23:50:50.531Z,100461.94
2018-10-01T23:55:53.829Z,100467.82
